No Warnings, Watches, or Advisories

Active alerts


No alerts

Amazon Weather

Hours of Daylight

12 hrs 14 min 50 sec
of Daylight Today
51% Day 49% Night Which is
2 min 42 sec Shorter
Than Yesterday

South Webcam more information South Webcam


NorthWest Webcam more information NorthWest Webcam


You find our weather info also at:

UK Metoffice

Weather Underground

Mid-Atlantic Weather Network

WeatherlinkIP

Citizen Weather Observer Program (CWOP)

HAMweather, WeatherForYou, PWS Weather



Nearby METAR Reports

   
KDUJ - Du Bois, Pennsylvania, USA
Distance from station: NNE 16 mi
Updated: Sep 19 2020 10:53 am
Clear  
Clear  
   Wind: NE 10.4 mph
Wind: NE 10.4 mph
Temperature: 51.8°F
Dew Point: 32°F
Humidity: 47%
Barometer: 30.39 inHg
Clouds: Clear
Visibility: 10 mi
Cloud details: Clear
KDUJ 191453Z AUTO 04009KT 10SM CLR 11/00 A3039 RMK AO2 SLP298 T01060000 53011
KIDI - Indiana/Stewart, Pennsylvania, USA
Distance from station: SSW 23 mi
Updated: Sep 19 2020 11:15 am
Clear  
Clear  
   Wind: East 6.9 mph<br />Gust to 6.9 mph
Wind: East 6.9 mph
Gust to 6.9 mph
Temperature: 53.6°F
Dew Point: 32°F
Humidity: 44%
Barometer: 30.44 inHg
Clouds: Clear
Visibility: 10 mi
Cloud details: Clear
KIDI 191515Z AUTO 08006G13KT 10SM CLR 12/M00 A3044 RMK A01
KFIG - Clearfield, Pennsylvania, USA
Distance from station: ENE 31 mi
Updated: Sep 19 2020 10:54 am
Clear  
Clear  
   Wind: varies 3.5 mph
Wind: varies 3.5 mph
Temperature: 50°F
Wind Chill: 48.2°F
Dew Point: 30.2°F
Humidity: 47%
Barometer: 30.41 inHg
Clouds: Clear
Visibility: 10 mi
Cloud details: Clear
KFIG 191454Z AUTO VRB03KT 10SM CLR 10/M01 A3041 RMK AO2 SLP303 T01001006 $
KJST - Johnstown, Pennsylvania, USA
Distance from station: S 44 mi
Updated: Sep 19 2020 10:54 am
Clear  
Clear  
   Wind: varies 6.9 mph
Wind: varies 6.9 mph
Temperature: 48.2°F
Wind Chill: 44.6°F
Dew Point: 30.2°F
Humidity: 50%
Barometer: 30.37 inHg
Clouds: Clear
Visibility: 10 mi
Cloud details: Clear
KJST 191454Z AUTO VRB06KT 10SM CLR 09/M01 A3037 RMK AO2 SLP292 T00941006 51012
KPIT - Pittsburgh, Pennsylvania, USA
Distance from station: WSW 74 mi
Updated: Sep 19 2020 10:51 am
Few Clouds  
Few Clouds  
   Wind: East 11.5 mph
Wind: East 11.5 mph
Temperature: 53.6°F
Dew Point: 35.6°F
Humidity: 51%
Barometer: 30.39 inHg
Clouds: Few Clouds
Visibility: 10 mi
Cloud details: Few Clouds 25000 ft
KPIT 191451Z 10010KT 10SM FEW250 12/02 A3039 RMK AO2 SLP302 T01170017 53009 $
KLBE - Latrobe/Westmorl, Pennsylvania, USA
Distance from station: SSW 52 mi
Updated: Sep 19 2020 10:53 am
Clear  
Clear  
   Wind: ENE 13.8 mph
Wind: ENE 13.8 mph
Temperature: 59°F
Barometer: 30.4 inHg
Clouds: Clear
Visibility: 10 mi
Cloud details: Clear
KLBE 191453Z 07012KT 10SM SKC 15/ A3040
KBTP - Butler Co., Pennsylvania, USA
Distance from station: WSW 52 mi
Updated: Sep 19 2020 10:56 am
Clear  
Clear  
   Wind: ESE 11.5 mph
Wind: ESE 11.5 mph
Temperature: 51.8°F
Dew Point: 35.6°F
Humidity: 54%
Barometer: 30.41 inHg
Clouds: Clear
Visibility: 10 mi
Cloud details: Clear
KBTP 191456Z AUTO 12010KT 10SM CLR 11/02 A3041 RMK AO2 SLP310 6//// T01110022 53011 PNO $
KUCP - New Castle Muni, Pennsylvania, USA
Distance from station: W 75 mi
Updated: Sep 19 2020 10:56 am
Clear  
Clear  
   Wind: ENE 6.9 mph
Wind: ENE 6.9 mph
Temperature: 53.6°F
Dew Point: 35.6°F
Humidity: 51%
Barometer: 30.42 inHg
Clouds: Clear
Visibility: 10 mi
Cloud details: Clear
KUCP 191456Z AUTO 06006KT 10SM CLR 12/02 A3042 RMK AO2 SLP323 T01220022 53010
KFKL - Franklin, Pennsylvania, USA
Distance from station: WNW 54 mi
Updated: Sep 19 2020 10:56 am
Clear  
Clear  
   Wind: ESE 8.1 mph
Wind: ESE 8.1 mph
Temperature: 51.8°F
Dew Point: 35.6°F
Humidity: 54%
Barometer: 30.42 inHg
Clouds: Clear
Visibility: 10 mi
Cloud details: Clear
KFKL 191456Z AUTO 12007KT 10SM CLR 11/02 A3042 RMK AO2 SLP309 T01060022 53012
KAOO - Altoona, Pennsylvania, USA
Distance from station: SE 57 mi
Updated: Sep 19 2020 10:53 am
Clear  
Clear  
   Wind: ENE 9.2 mph
Wind: ENE 9.2 mph
Temperature: 51.8°F
Dew Point: 30.2°F
Humidity: 44%
Barometer: 30.4 inHg
Clouds: Clear
Visibility: 10 mi
Cloud details: Clear
KAOO 191453Z AUTO 06008KT 10SM CLR 11/M01 A3040 RMK AO2 SLP299 60000 T01111011 52012
KUNV - State College, Pennsylvania, USA
Distance from station: E 61 mi
Updated: Sep 19 2020 10:53 am
Clear  
Clear  
   Wind: NNE 11.5 mph
Wind: NNE 11.5 mph
Temperature: 51.8°F
Dew Point: 30.2°F
Humidity: 44%
Barometer: 30.41 inHg
Clouds: Clear
Visibility: 10 mi
Cloud details: Clear
KUNV 191453Z 03010KT 10SM SKC 11/M01 A3041
KBFD - Bradford, Pennsylvania, USA
Distance from station: NNE 62 mi
Updated: Sep 19 2020 10:53 am
Clear  
Clear  
   Wind: East 11.5 mph
Wind: East 11.5 mph
Temperature: 48.2°F
Wind Chill: 42.8°F
Dew Point: 28.4°F
Humidity: 46%
Barometer: 30.4 inHg
Clouds: Clear
Visibility: 10 mi
Cloud details: Clear
KBFD 191453Z AUTO 10010KT 10SM CLR 09/M02 A3040 RMK AO2 SLP303 T00941017 53013

Script developed by  Saratoga-weather.org Adapted for the template by  Weerstation Leuven

Equipment we use:

Weather-station
Davis VP2

Weather-program
Cumulus

Weather-server
Dell Latitude e5450

Provider
Host On A Rope

Davis VP2

Cumulus

Dell Latitude e5450

Host On A Rope